Time;durP1;ratioP1;P1;durP2;ratioP2;P2;SDS_P1;SDS_P2;PMS_P1;PMS_P2;Temp;Humidity;BMP_temperature;BMP_pressure;BME280_temperature;BME280_humidity;BME280_pressure;Samples;Min_cycle;Max_cycle;Signal;HPM_P1;HPM_P2
2021/03/19 00:02:17;;;;;;;22.37;17.57;;;;;;;1.72;82.09;100860.31;5064172;28;20238;-80
2021/03/19 00:04:43;;;;;;;19.23;16.27;;;;;;;1.72;81.70;100857.72;5069673;28;20611;-78
2021/03/19 00:07:09;;;;;;;19.57;17.47;;;;;;;1.67;81.70;100850.75;5071893;28;20201;-81
2021/03/19 00:09:35;;;;;;;20.13;17.03;;;;;;;1.65;81.89;100855.00;5072638;28;20669;-80
2021/03/19 00:12:02;;;;;;;20.07;17.00;;;;;;;1.70;81.22;100859.41;5074117;28;20258;-80
2021/03/19 00:14:28;;;;;;;22.07;17.13;;;;;;;1.69;81.01;100860.25;5071927;28;20217;-80
2021/03/19 00:16:53;;;;;;;21.07;16.60;;;;;;;1.65;81.29;100862.72;5074464;28;20300;-80
2021/03/19 00:19:19;;;;;;;19.47;16.07;;;;;;;1.62;81.59;100857.50;5070645;28;20285;-80
2021/03/19 00:21:45;;;;;;;25.03;16.93;;;;;;;1.68;80.42;100852.50;5074500;28;20245;-81
2021/03/19 00:24:12;;;;;;;17.67;15.80;;;;;;;1.69;80.21;100865.41;5070513;28;20308;-82
2021/03/19 00:26:38;;;;;;;17.87;15.63;;;;;;;1.71;80.05;100855.16;5073581;28;20207;-80
2021/03/19 00:29:04;;;;;;;18.00;15.90;;;;;;;1.67;80.05;100855.91;5070947;28;20197;-80
2021/03/19 00:31:30;;;;;;;19.73;16.13;;;;;;;1.62;79.61;100854.91;5074395;28;20592;-81
2021/03/19 00:33:56;;;;;;;17.63;15.60;;;;;;;1.70;79.36;100855.97;5069191;28;20252;-79
2021/03/19 00:36:22;;;;;;;21.70;16.93;;;;;;;1.65;80.02;100858.44;5071021;28;20197;-80
2021/03/19 00:38:48;;;;;;;23.43;16.67;;;;;;;1.63;79.85;100844.66;5071476;28;20272;-80
2021/03/19 00:41:15;;;;;;;18.40;16.23;;;;;;;1.59;79.37;100848.88;5071316;28;20569;-79
2021/03/19 00:43:41;;;;;;;22.43;17.07;;;;;;;1.51;79.72;100849.53;5068565;28;20237;-79
2021/03/19 00:46:07;;;;;;;22.77;18.37;;;;;;;1.55;79.61;100847.06;5073431;28;20288;-79
2021/03/19 00:48:33;;;;;;;21.37;16.97;;;;;;;1.53;79.35;100848.72;5069792;28;20209;-80
2021/03/19 00:51:00;;;;;;;24.63;18.40;;;;;;;1.45;80.68;100847.66;5072341;28;20200;-79
2021/03/19 00:53:26;;;;;;;22.43;17.30;;;;;;;1.46;80.36;100854.53;5066273;28;20229;-79
2021/03/19 00:55:52;;;;;;;26.33;18.77;;;;;;;1.47;80.48;100853.72;5072571;28;20195;-79
2021/03/19 00:58:18;;;;;;;20.17;16.80;;;;;;;1.51;79.86;100857.25;5067386;28;20251;-78
2021/03/19 01:00:44;;;;;;;21.30;15.87;;;;;;;1.50;79.50;100863.19;5072641;28;20215;-78
2021/03/19 01:03:11;;;;;;;18.07;16.17;;;;;;;1.47;79.54;100855.44;5066304;28;20225;-79
2021/03/19 01:05:39;;;;;;;22.03;15.83;;;;;;;1.46;79.41;100857.09;5072721;28;20210;-78
2021/03/19 01:08:05;;;;;;;26.10;16.87;;;;;;;1.44;79.66;100863.06;5067456;28;20217;-78
2021/03/19 01:10:34;;;;;;;27.20;17.80;;;;;;;1.35;79.38;100858.56;5072692;28;20198;-79
2021/03/19 01:13:01;;;;;;;20.73;16.87;;;;;;;1.29;79.84;100851.56;5067477;28;20216;-79
2021/03/19 01:15:28;;;;;;;23.03;17.53;;;;;;;1.32;79.65;100864.47;5070152;28;20632;-77
2021/03/19 01:17:54;;;;;;;26.30;18.33;;;;;;;1.32;80.23;100876.47;5071760;28;20234;-77
2021/03/19 01:20:23;;;;;;;23.03;18.23;;;;;;;1.29;80.19;100872.13;5067953;28;20228;-79
2021/03/19 01:22:49;;;;;;;27.40;18.87;;;;;;;1.23;80.25;100879.69;5065851;28;20240;-77
2021/03/19 01:25:17;;;;;;;24.80;17.70;;;;;;;1.22;80.57;100877.06;5070105;28;20226;-79
2021/03/19 01:27:44;;;;;;;34.43;22.07;;;;;;;1.09;82.27;100886.13;5065932;28;20212;-79
2021/03/19 01:30:13;;;;;;;27.43;19.03;;;;;;;1.06;81.78;100883.50;5070065;28;20269;-78
2021/03/19 01:32:42;;;;;;;23.80;17.10;;;;;;;1.02;81.79;100872.25;5069144;28;20205;-79
2021/03/19 01:37:36;;;;;;;30.20;19.93;;;;;;;0.90;82.68;100883.09;5038552;28;20217;-77
2021/03/19 01:40:04;;;;;;;25.97;18.50;;;;;;;0.89;82.14;100881.34;5047360;28;20244;-77
2021/03/19 01:42:30;;;;;;;26.77;18.60;;;;;;;0.96;82.13;100890.09;5041779;28;20221;-76
2021/03/19 01:45:25;;;;;;;28.53;20.80;;;;;;;1.03;81.61;100881.72;5031512;28;20240;-76
2021/03/19 01:48:29;;;;;;;34.70;19.97;;;;;;;1.07;81.73;100888.69;5023595;28;20194;-76
2021/03/19 01:51:32;;;;;;;35.50;20.77;;;;;;;1.08;82.33;100898.13;5030001;28;20655;-76
2021/03/19 01:54:35;;;;;;;27.17;19.03;;;;;;;1.14;82.28;100900.00;5024966;28;20224;-76
2021/03/19 01:57:38;;;;;;;25.10;18.67;;;;;;;1.14;81.77;100907.72;5030570;28;20256;-76
2021/03/19 02:00:41;;;;;;;31.33;19.67;;;;;;;1.07;81.82;100909.25;5016013;28;20701;-76
2021/03/19 02:03:45;;;;;;;26.73;18.20;;;;;;;1.05;81.79;100910.03;5027979;28;20267;-76
2021/03/19 02:06:48;;;;;;;24.90;18.50;;;;;;;1.10;81.77;100916.19;5034811;28;20202;-76
2021/03/19 02:09:51;;;;;;;23.87;16.57;;;;;;;1.06;81.38;100914.34;5031512;28;20244;-76
2021/03/19 02:12:55;;;;;;;19.43;15.17;;;;;;;1.08;81.08;100903.28;5034946;28;20205;-76
2021/03/19 02:15:58;;;;;;;20.97;15.03;;;;;;;0.97;81.55;100903.00;5024092;28;20202;-76
2021/03/19 02:19:01;;;;;;;19.37;14.77;;;;;;;0.99;81.14;100911.63;5027049;28;20198;-76
2021/03/19 02:22:04;;;;;;;18.67;14.60;;;;;;;0.96;81.37;100910.66;5034237;28;20238;-76
2021/03/19 02:25:08;;;;;;;18.43;14.77;;;;;;;0.90;81.94;100908.78;5035217;28;20222;-76
2021/03/19 02:28:11;;;;;;;21.30;14.87;;;;;;;0.87;81.39;100906.13;5034910;28;20707;-76
2021/03/19 02:31:11;;;;;;;17.17;13.57;;;;;;;0.87;81.19;100911.25;5034208;28;20202;-76
2021/03/19 02:33:42;;;;;;;15.30;13.80;;;;;;;0.93;81.16;100918.25;5033711;28;20778;-76
2021/03/19 02:36:09;;;;;;;18.70;14.47;;;;;;;0.83;80.97;100917.13;5034286;28;20630;-76
2021/03/19 02:38:35;;;;;;;18.83;14.47;;;;;;;0.76;81.55;100915.25;5035138;28;20202;-76
2021/03/19 02:41:01;;;;;;;17.63;14.87;;;;;;;0.75;82.03;100916.06;5034135;28;20267;-77
2021/03/19 02:43:27;;;;;;;15.67;13.37;;;;;;;0.79;81.75;100921.34;5034130;28;20219;-76
2021/03/19 02:45:53;;;;;;;14.93;12.47;;;;;;;0.83;81.60;100926.56;5034136;28;20198;-76
2021/03/19 02:48:19;;;;;;;15.67;13.73;;;;;;;0.84;81.18;100918.03;5034266;28;20668;-76
2021/03/19 02:50:46;;;;;;;14.70;12.47;;;;;;;0.84;81.39;100924.03;5033720;28;20210;-76
2021/03/19 02:53:13;;;;;;;16.60;13.03;;;;;;;0.85;81.25;100930.03;5034161;28;20214;-76
2021/03/19 02:55:40;;;;;;;14.57;12.93;;;;;;;0.90;81.57;100938.75;5035011;28;20202;-76
2021/03/19 02:58:06;;;;;;;16.27;12.30;;;;;;;0.87;81.35;100938.66;5035931;28;20202;-76
2021/03/19 03:00:32;;;;;;;14.07;12.23;;;;;;;0.91;81.13;100935.34;5035275;28;20306;-76
2021/03/19 03:02:58;;;;;;;13.87;12.47;;;;;;;0.94;81.72;100945.72;5033561;28;20229;-77
2021/03/19 03:05:23;;;;;;;12.67;11.37;;;;;;;0.92;81.92;100948.25;5032869;28;20253;-77
2021/03/19 03:07:50;;;;;;;18.40;12.70;;;;;;;0.91;81.63;100951.66;5027085;28;20732;-77
2021/03/19 03:10:19;;;;;;;15.37;12.23;;;;;;;0.82;81.63;100953.94;5034162;28;20209;-76
2021/03/19 03:12:45;;;;;;;13.90;12.17;;;;;;;0.87;81.50;100956.66;5026065;28;20195;-76
2021/03/19 03:15:14;;;;;;;16.10;12.50;;;;;;;0.88;81.83;100950.69;5032596;28;20608;-76
2021/03/19 03:17:41;;;;;;;17.27;12.37;;;;;;;0.89;81.38;100963.59;5033345;28;20198;-77
2021/03/19 03:20:08;;;;;;;14.20;11.30;;;;;;;0.92;80.90;100961.09;5034083;28;20224;-76
2021/03/19 03:22:34;;;;;;;16.20;11.83;;;;;;;0.86;81.78;100957.50;5033714;28;20229;-76
2021/03/19 03:25:02;;;;;;;13.63;11.47;;;;;;;0.88;81.51;100963.53;5034165;28;20777;-76
2021/03/19 03:27:27;;;;;;;13.43;11.93;;;;;;;0.95;81.71;100971.47;5033177;28;20198;-76
2021/03/19 03:29:53;;;;;;;12.90;11.50;;;;;;;0.99;81.84;100972.41;5033889;28;20293;-76
2021/03/19 03:32:19;;;;;;;13.70;12.20;;;;;;;0.96;81.10;100969.78;5033237;28;20248;-76
2021/03/19 03:34:45;;;;;;;13.87;12.33;;;;;;;0.98;81.41;100968.97;5033695;28;20649;-75
2021/03/19 03:37:12;;;;;;;13.37;11.90;;;;;;;1.03;81.25;100981.09;5033071;28;20695;-75
2021/03/19 03:39:38;;;;;;;13.73;11.90;;;;;;;1.05;80.67;100974.28;5034166;28;20213;-76
2021/03/19 03:42:06;;;;;;;13.73;11.27;;;;;;;0.96;80.67;100977.47;5032922;28;20754;-76
2021/03/19 03:44:33;;;;;;;13.33;11.93;;;;;;;1.03;80.67;100981.09;5033181;28;20230;-75
2021/03/19 03:46:59;;;;;;;14.77;10.97;;;;;;;1.03;80.23;100983.66;5032453;28;20202;-76
2021/03/19 03:49:26;;;;;;;13.43;10.93;;;;;;;1.03;80.89;100983.66;5033825;28;20221;-76
2021/03/19 03:51:52;;;;;;;13.17;11.87;;;;;;;0.95;80.50;100986.91;5032322;28;20199;-76
2021/03/19 03:54:18;;;;;;;12.97;11.63;;;;;;;0.92;80.86;100981.66;5033284;28;20225;-76
2021/03/19 03:56:45;;;;;;;13.37;11.10;;;;;;;0.88;80.59;100981.53;5032121;28;20202;-76
2021/03/19 03:59:12;;;;;;;12.07;10.77;;;;;;;0.85;81.02;100989.13;5033350;28;20258;-75
2021/03/19 04:01:41;;;;;;;13.13;11.80;;;;;;;0.88;81.20;100991.81;5032474;28;20250;-76
2021/03/19 04:04:09;;;;;;;13.87;11.23;;;;;;;0.80;81.12;100996.72;5033074;28;20222;-76
2021/03/19 04:06:35;;;;;;;13.10;10.83;;;;;;;0.79;81.41;100995.88;5032132;28;20206;-76
2021/03/19 04:09:01;;;;;;;13.83;11.90;;;;;;;0.78;81.22;100994.09;5033020;28;20229;-76
2021/03/19 04:11:27;;;;;;;12.77;10.70;;;;;;;0.75;81.17;101008.56;5031732;28;20324;-76
2021/03/19 04:13:53;;;;;;;11.93;10.60;;;;;;;0.74;80.86;101006.81;5032886;28;20229;-76
2021/03/19 04:16:20;;;;;;;11.80;10.70;;;;;;;0.78;80.79;101008.66;5032695;28;20206;-76
2021/03/19 04:18:47;;;;;;;12.00;10.83;;;;;;;0.66;81.19;101011.72;5033107;28;20206;-76
2021/03/19 04:21:14;;;;;;;11.67;10.53;;;;;;;0.66;81.26;101005.72;5032750;28;20198;-76
2021/03/19 04:23:43;;;;;;;12.63;10.17;;;;;;;0.68;81.00;101011.78;5032272;28;20217;-76
2021/03/19 04:26:21;;;;;;;13.27;11.03;;;;;;;0.61;81.57;101023.53;5032190;28;20202;-76
2021/03/19 04:28:47;;;;;;;15.17;11.00;;;;;;;0.44;81.18;101020.47;5025559;28;20191;-76
2021/03/19 04:31:13;;;;;;;11.20;10.10;;;;;;;0.51;81.72;101029.22;5030311;28;20580;-76
2021/03/19 04:33:40;;;;;;;12.20;11.10;;;;;;;0.52;82.00;101028.41;5032617;28;20314;-76
2021/03/19 04:36:27;;;;;;;12.87;10.63;;;;;;;0.53;81.59;101036.13;5032064;28;20703;-76
2021/03/19 04:38:56;;;;;;;10.93;9.93;;;;;;;0.51;81.33;101022.38;5026138;28;20190;-76
2021/03/19 04:41:22;;;;;;;11.53;10.33;;;;;;;0.47;81.42;101035.09;5031930;28;20589;-76
2021/03/19 04:43:48;;;;;;;12.00;10.57;;;;;;;0.44;81.16;101033.31;5032166;28;20707;-76
2021/03/19 04:46:14;;;;;;;11.83;9.77;;;;;;;0.42;81.19;101039.19;5025463;28;20203;-76
2021/03/19 04:48:41;;;;;;;11.57;10.40;;;;;;;0.41;81.20;101045.16;5032048;28;20206;-76
2021/03/19 04:51:07;;;;;;;10.73;9.73;;;;;;;0.40;80.88;101041.75;5031793;28;20203;-76
2021/03/19 04:53:33;;;;;;;10.40;9.17;;;;;;;0.42;80.60;101054.59;5032375;28;20217;-76
2021/03/19 04:55:59;;;;;;;9.90;8.70;;;;;;;0.45;80.59;101049.56;5031769;28;20206;-76
2021/03/19 04:58:25;;;;;;;12.93;11.82;;;;;;;0.50;80.96;101050.59;5031328;28;20433;-76
2021/03/19 05:00:51;;;;;;;10.80;9.80;;;;;;;0.48;80.33;101049.69;5031842;28;20259;-76
2021/03/19 05:03:17;;;;;;;10.03;9.03;;;;;;;0.43;80.34;101053.78;5031976;28;20230;-76
2021/03/19 05:05:44;;;;;;;10.37;8.73;;;;;;;0.31;80.95;101060.25;5031374;28;20623;-76
2021/03/19 05:08:10;;;;;;;10.70;9.60;;;;;;;0.27;80.92;101053.28;5032190;28;20248;-76
2021/03/19 05:10:37;;;;;;;9.70;8.70;;;;;;;0.21;81.52;101053.09;5031236;28;20198;-76
2021/03/19 05:13:05;;;;;;;10.53;9.33;;;;;;;0.22;81.23;101057.41;5031785;28;20280;-76
2021/03/19 05:15:32;;;;;;;10.83;9.13;;;;;;;0.14;80.90;101063.97;5031172;28;20217;-76
2021/03/19 05:17:58;;;;;;;11.77;9.40;;;;;;;0.16;80.86;101064.91;5032070;28;20248;-76
2021/03/19 05:20:25;;;;;;;9.83;8.83;;;;;;;0.21;80.86;101068.50;5030863;28;20206;-76
2021/03/19 05:22:52;;;;;;;9.57;8.40;;;;;;;0.27;80.61;101067.81;5031455;28;20233;-76
2021/03/19 05:25:22;;;;;;;9.00;8.10;;;;;;;0.32;80.57;101068.88;5031661;28;20209;-76
2021/03/19 05:27:50;;;;;;;9.67;8.20;;;;;;;0.35;80.03;101064.69;5027265;28;20292;-75
2021/03/19 05:30:17;;;;;;;9.73;7.90;;;;;;;0.32;79.75;101066.31;5031644;28;20206;-75
2021/03/19 05:32:43;;;;;;;10.33;8.57;;;;;;;0.32;79.88;101071.44;5031418;28;20201;-76
2021/03/19 05:35:18;;;;;;;9.40;8.30;;;;;;;0.33;79.53;101068.88;5031444;28;20214;-76
2021/03/19 05:37:48;;;;;;;9.73;8.73;;;;;;;0.36;79.73;101081.84;5030849;28;20816;-76
2021/03/19 05:40:24;;;;;;;9.93;8.90;;;;;;;0.33;79.45;101083.44;5031301;28;20251;-76
2021/03/19 05:42:50;;;;;;;10.50;8.20;;;;;;;0.32;79.85;101082.56;5024106;28;20236;-75
2021/03/19 05:45:24;;;;;;;11.27;8.90;;;;;;;0.30;79.74;101085.91;5030324;28;20214;-75
2021/03/19 05:47:52;;;;;;;9.43;8.53;;;;;;;0.28;79.86;101085.84;5030457;28;20550;-75
2021/03/19 05:50:28;;;;;;;9.57;8.57;;;;;;;0.24;79.62;101093.38;5030983;28;20268;-76
2021/03/19 05:52:54;;;;;;;9.40;8.37;;;;;;;0.30;79.06;101089.34;5024711;28;20214;-75
2021/03/19 05:55:24;;;;;;;9.53;8.53;;;;;;;0.26;79.46;101095.22;5030947;28;20397;-75
2021/03/19 05:57:56;;;;;;;10.10;9.10;;;;;;;0.15;79.61;101101.66;5031198;28;20244;-75
2021/03/19 06:00:25;;;;;;;11.70;9.37;;;;;;;0.17;79.65;101100.88;5030985;28;20210;-75
2021/03/19 06:02:51;;;;;;;9.17;8.27;;;;;;;0.17;79.76;101090.63;5031168;28;20229;-76
2021/03/19 06:05:20;;;;;;;8.87;7.97;;;;;;;0.17;80.26;101100.03;5030659;28;20219;-75
2021/03/19 06:07:49;;;;;;;10.67;9.33;;;;;;;0.17;79.79;101102.59;5023005;28;20221;-75
2021/03/19 06:10:31;;;;;;;10.07;9.07;;;;;;;0.16;79.81;101104.28;5031357;28;20252;-75
2021/03/19 06:13:18;;;;;;;9.57;8.60;;;;;;;0.16;80.62;101103.44;5025061;28;20213;-75
2021/03/19 06:15:45;;;;;;;10.20;9.20;;;;;;;0.16;80.24;101103.44;5030536;28;20202;-75
2021/03/19 06:18:27;;;;;;;9.20;8.17;;;;;;;0.03;80.80;101114.09;5031467;28;20229;-75
2021/03/19 06:20:56;;;;;;;11.17;10.10;;;;;;;0.07;80.83;101108.22;5030337;28;20572;-76
2021/03/19 06:23:25;;;;;;;10.83;8.93;;;;;;;-0.03;81.19;101112.16;5030950;28;20222;-75
2021/03/19 06:26:01;;;;;;;9.43;8.53;;;;;;;0.05;80.72;101110.75;5030489;28;20210;-76
2021/03/19 06:28:29;;;;;;;10.30;9.27;;;;;;;0.08;81.10;101120.22;5031414;28;20190;-75
2021/03/19 06:31:15;;;;;;;14.20;10.30;;;;;;;0.08;80.75;101126.25;5030357;28;20202;-75
2021/03/19 06:33:42;;;;;;;12.13;10.93;;;;;;;0.11;81.02;101123.78;5031051;28;20231;-75
2021/03/19 06:36:13;;;;;;;11.90;10.80;;;;;;;0.13;80.99;101134.97;5030535;28;20207;-75
2021/03/19 06:38:41;;;;;;;10.63;8.80;;;;;;;0.20;80.74;101148.91;5031142;28;20199;-75
2021/03/19 06:41:28;;;;;;;12.17;8.77;;;;;;;0.18;80.97;101142.84;5029714;28;20209;-75
2021/03/19 06:44:14;;;;;;;10.47;9.43;;;;;;;0.23;80.75;101141.31;5030745;28;20596;-78
2021/03/19 06:46:46;;;;;;;12.53;9.23;;;;;;;0.38;80.13;101151.25;5029753;28;20202;-75
2021/03/19 06:49:14;;;;;;;11.57;10.50;;;;;;;0.26;80.82;101146.56;5032694;28;20202;-76
2021/03/19 06:51:41;;;;;;;9.37;8.47;;;;;;;0.10;81.06;101144.25;5034403;28;20207;-75
2021/03/19 06:54:10;;;;;;;9.17;8.33;;;;;;;-0.02;82.11;101145.59;5034304;28;20237;-76
2021/03/19 06:56:38;;;;;;;9.53;8.63;;;;;;;0.08;81.95;101149.34;5034551;28;20209;-76
2021/03/19 06:59:20;;;;;;;9.70;8.70;;;;;;;-0.10;82.31;101151.25;5034673;28;20256;-76
2021/03/19 07:01:46;;;;;;;12.37;9.80;;;;;;;-0.04;82.78;101142.09;5030639;28;20226;-76
2021/03/19 07:04:38;;;;;;;10.60;9.63;;;;;;;0.04;82.63;101150.06;5034100;28;20222;-76
2021/03/19 07:07:36;;;;;;;8.87;8.07;;;;;;;0.22;81.96;101161.78;5040766;28;20195;-76
2021/03/19 07:10:16;;;;;;;9.43;8.53;;;;;;;0.27;82.44;101160.25;5037967;28;20213;-76
2021/03/19 07:12:50;;;;;;;8.13;7.40;;;;;;;0.27;82.09;101166.25;5029918;28;20555;-76
2021/03/19 07:15:21;;;;;;;9.10;8.40;;;;;;;0.39;81.85;101176.94;5030554;28;20207;-75
2021/03/19 07:17:53;;;;;;;9.50;8.60;;;;;;;0.51;80.90;101184.19;5024482;28;20203;-76
2021/03/19 07:20:50;;;;;;;9.07;8.17;;;;;;;0.59;81.44;101192.16;5027736;28;20190;-76
2021/03/19 07:23:18;;;;;;;9.47;7.13;;;;;;;0.74;80.56;101191.81;5022438;28;20714;-76
2021/03/19 07:26:02;;;;;;;10.63;8.10;;;;;;;0.80;80.59;101186.88;5029102;28;20301;-76
2021/03/19 07:29:03;;;;;;;9.63;7.37;;;;;;;0.95;80.99;101195.09;5028732;28;20209;-75
2021/03/19 07:31:50;;;;;;;11.80;7.70;;;;;;;1.04;79.81;101194.50;5030117;28;20285;-75
2021/03/19 07:34:37;;;;;;;8.17;7.30;;;;;;;0.99;80.41;101186.66;5026120;28;20233;-75
2021/03/19 07:37:11;;;;;;;8.60;7.70;;;;;;;1.06;79.22;101199.69;5023710;28;20218;-74
2021/03/19 07:40:00;;;;;;;9.30;8.40;;;;;;;1.01;79.28;101209.81;5051466;22;20246;-78
2021/03/19 07:42:56;;;;;;;9.33;8.53;;;;;;;1.09;79.48;101212.63;5033495;28;20229;-78
2021/03/19 07:45:31;;;;;;;8.70;7.67;;;;;;;1.09;79.78;101212.63;5037144;28;20202;-78
2021/03/19 07:48:24;;;;;;;9.93;8.43;;;;;;;1.18;80.24;101215.50;5036328;28;20316;-80
2021/03/19 07:51:13;;;;;;;9.00;8.13;;;;;;;1.29;79.82;101202.97;5033350;28;20202;-79
2021/03/19 07:54:04;;;;;;;9.30;8.40;;;;;;;1.41;79.56;101208.53;5033889;28;20205;-79
2021/03/19 07:56:44;;;;;;;13.27;8.00;;;;;;;1.45;78.38;101205.22;5029838;28;20203;-79
2021/03/19 07:59:20;;;;;;;8.20;7.50;;;;;;;1.44;78.12;101211.19;5032015;28;20221;-82
2021/03/19 08:01:56;;;;;;;8.77;7.90;;;;;;;1.45;78.62;101204.31;5030618;28;20230;-80
2021/03/19 08:04:36;;;;;;;9.70;8.37;;;;;;;1.44;79.05;101220.59;5029284;28;20676;-80
2021/03/19 08:07:19;;;;;;;8.20;7.43;;;;;;;1.39;79.18;101217.91;5030075;28;20203;-81
2021/03/19 08:09:54;;;;;;;8.50;7.63;;;;;;;1.37;79.00;101215.28;5027757;28;20242;-80
2021/03/19 08:12:25;;;;;;;9.10;8.13;;;;;;;1.35;80.14;101211.78;5030531;28;20201;-79
2021/03/19 08:15:05;;;;;;;9.13;8.33;;;;;;;1.40;79.81;101224.78;5031477;28;20202;-80
2021/03/19 08:17:40;;;;;;;8.93;8.10;;;;;;;1.40;80.45;101219.63;5029182;28;20215;-79
2021/03/19 08:20:22;;;;;;;9.73;8.83;;;;;;;1.48;79.11;101215.59;5028477;28;20221;-79
2021/03/19 08:22:54;;;;;;;9.13;8.33;;;;;;;1.56;79.11;101226.13;5028305;28;20719;-78
2021/03/19 08:25:23;;;;;;;9.50;8.57;;;;;;;1.58;79.65;101229.59;5033128;28;20571;-77
2021/03/19 08:27:57;;;;;;;8.37;7.67;;;;;;;1.57;79.49;101226.16;5026215;28;20221;-77
2021/03/19 08:30:40;;;;;;;9.73;8.10;;;;;;;1.67;79.30;101234.19;5029408;28;20241;-78
2021/03/19 08:33:16;;;;;;;8.80;7.90;;;;;;;1.71;79.11;101246.31;5022862;28;20207;-78
2021/03/19 08:35:50;;;;;;;9.07;8.17;;;;;;;1.80;79.45;101241.41;5029484;28;20198;-78
2021/03/19 08:38:24;;;;;;;8.87;7.33;;;;;;;1.84;79.42;101245.81;5035246;28;20770;-79
2021/03/19 08:40:58;;;;;;;7.50;6.80;;;;;;;1.91;78.98;101237.47;5032492;28;20224;-79
2021/03/19 08:43:28;;;;;;;7.80;7.03;;;;;;;2.03;79.15;101244.69;5026897;28;20576;-79
2021/03/19 08:46:03;;;;;;;7.53;6.60;;;;;;;2.06;78.84;101256.75;5027424;28;20602;-78
2021/03/19 08:48:33;;;;;;;6.33;5.73;;;;;;;2.10;78.39;101264.63;5021998;28;20235;-80
2021/03/19 08:51:13;;;;;;;6.50;5.90;;;;;;;2.15;78.52;101263.03;5029581;28;20252;-79
2021/03/19 08:54:06;;;;;;;5.77;5.07;;;;;;;2.27;77.61;101259.09;5027625;28;20214;-80
2021/03/19 08:56:33;;;;;;;5.75;4.75;;;;;;;2.29;77.74;101268.59;5033501;28;20447;-78
2021/03/19 08:58:59;;;;;;;5.03;4.60;;;;;;;2.34;76.77;101263.59;5029503;28;20222;-77
2021/03/19 09:01:52;;;;;;;4.67;4.30;;;;;;;2.33;76.71;101264.41;5027058;28;20205;-81
2021/03/19 09:04:58;;;;;;;5.30;4.83;;;;;;;2.47;76.93;101268.22;5028594;28;20198;-82
2021/03/19 09:07:27;;;;;;;4.40;4.00;;;;;;;2.56;75.72;101270.19;5028941;28;20455;-80
2021/03/19 09:09:55;;;;;;;4.13;3.73;;;;;;;2.55;76.06;101271.00;5032754;28;20223;-81
2021/03/19 09:12:24;;;;;;;8.77;3.70;;;;;;;2.56;75.30;101275.34;5028318;28;20198;-81
2021/03/19 09:15:29;;;;;;;5.77;3.63;;;;;;;2.63;75.83;101271.22;5032728;28;20207;-81
2021/03/19 09:18:02;;;;;;;4.90;4.28;;;;;;;2.79;75.17;101265.63;5026870;28;20442;-81
2021/03/19 09:20:54;;;;;;;4.43;3.30;;;;;;;2.92;75.33;101266.84;5023642;28;20240;-82
2021/03/19 09:23:24;;;;;;;5.30;3.10;;;;;;;3.02;74.65;101273.13;5029310;28;20222;-82
2021/03/19 09:25:54;;;;;;;3.77;3.47;;;;;;;3.26;73.88;101262.53;5034804;28;20225;-80
2021/03/19 09:28:33;;;;;;;3.87;3.00;;;;;;;3.47;71.94;101262.16;5031430;28;20253;-81
2021/03/19 09:31:09;;;;;;;3.17;2.87;;;;;;;3.55;70.76;101248.59;5029826;28;20201;-81
2021/03/19 09:33:59;;;;;;;5.97;3.40;;;;;;;3.51;72.26;101251.94;5029912;28;20207;-79
2021/03/19 09:37:01;;;;;;;3.70;2.40;;;;;;;3.51;70.68;101251.94;5031335;28;20201;-80
2021/03/19 09:39:47;;;;;;;4.73;2.20;;;;;;;3.48;69.47;101263.91;5032402;28;20225;-80
2021/03/19 09:42:51;;;;;;;2.17;1.80;;;;;;;3.45;68.42;101266.41;5029276;28;20221;-80
2021/03/19 09:45:40;;;;;;;2.47;1.93;;;;;;;3.43;67.84;101265.50;5031939;28;20211;-80
2021/03/19 09:48:32;;;;;;;2.40;2.20;;;;;;;3.44;67.53;101257.78;5025712;28;20285;-79
2021/03/19 09:51:41;;;;;;;1.77;1.67;;;;;;;3.37;67.81;101266.25;5027361;28;20395;-78
2021/03/19 09:54:35;;;;;;;3.13;1.70;;;;;;;3.37;68.22;101264.53;5030825;28;20205;-79
2021/03/19 09:57:05;;;;;;;2.33;1.73;;;;;;;3.38;67.92;101267.97;5035602;28;20288;-83
2021/03/19 09:59:35;;;;;;;1.40;1.20;;;;;;;3.41;67.02;101269.75;5031597;28;20268;-80
2021/03/19 10:02:01;;;;;;;2.43;1.40;;;;;;;3.42;65.29;101264.63;5030285;28;20233;-80
2021/03/19 10:04:33;;;;;;;2.60;1.27;;;;;;;3.47;65.18;101262.16;5024904;28;20207;-80
2021/03/19 10:07:06;;;;;;;1.93;1.30;;;;;;;3.60;66.18;101269.34;5027544;28;20225;-79
2021/03/19 10:09:42;;;;;;;1.60;1.50;;;;;;;3.66;66.21;101274.63;5029087;28;20227;-80
2021/03/19 10:12:14;;;;;;;1.63;1.50;;;;;;;3.72;65.38;101272.19;5042706;28;20186;-81
2021/03/19 10:14:43;;;;;;;3.03;1.70;;;;;;;3.86;67.06;101281.97;5044433;28;20224;-81
2021/03/19 10:17:18;;;;;;;1.70;1.60;;;;;;;3.99;66.03;101278.81;5048484;28;20206;-79
2021/03/19 10:19:49;;;;;;;2.53;2.20;;;;;;;4.10;65.77;101274.75;5048873;28;20208;-80
2021/03/19 10:22:38;;;;;;;2.60;1.90;;;;;;;4.22;64.77;101266.38;5026505;28;20215;-80
2021/03/19 10:25:26;;;;;;;2.23;2.00;;;;;;;4.27;64.09;101272.50;5031383;28;20199;-78
2021/03/19 10:27:53;;;;;;;5.80;2.27;;;;;;;4.34;65.15;101265.75;5035142;28;20209;-79
2021/03/19 10:30:22;;;;;;;3.07;2.00;;;;;;;4.50;65.23;101272.09;5035273;28;20330;-82
2021/03/19 10:32:49;;;;;;;2.47;2.00;;;;;;;4.60;64.24;101278.31;5030736;28;20692;-81
2021/03/19 10:35:19;;;;;;;2.20;2.10;;;;;;;4.77;64.94;101274.31;5034128;28;20214;-81
2021/03/19 10:37:53;;;;;;;2.80;2.33;;;;;;;4.92;64.58;101272.03;5031084;28;20210;-81
2021/03/19 10:40:29;;;;;;;2.40;2.20;;;;;;;5.08;64.02;101273.16;5035243;28;20288;-82
2021/03/19 10:43:03;;;;;;;2.43;2.20;;;;;;;5.23;63.92;101269.94;5032303;28;20811;-81
2021/03/19 10:45:33;;;;;;;3.67;2.73;;;;;;;5.32;64.25;101275.28;5030056;28;20184;-81
2021/03/19 10:48:11;;;;;;;2.60;2.40;;;;;;;5.39;63.62;101276.22;5038188;28;20232;-81
2021/03/19 10:50:52;;;;;;;2.60;1.90;;;;;;;5.48;62.78;101281.56;5029078;28;20209;-80
2021/03/19 10:53:23;;;;;;;1.87;1.77;;;;;;;5.59;62.36;101286.94;5037584;28;20209;-78
2021/03/19 10:55:51;;;;;;;3.10;2.80;;;;;;;5.78;62.36;101275.09;5021446;28;20236;-81
2021/03/19 10:58:36;;;;;;;3.17;2.87;;;;;;;5.93;62.34;101272.72;5031020;28;20221;-80
2021/03/19 11:01:27;;;;;;;2.50;2.30;;;;;;;5.91;62.45;101270.97;5039039;28;20301;-80
2021/03/19 11:03:54;;;;;;;6.23;2.50;;;;;;;5.85;62.63;101281.25;5036423;28;20243;-81
2021/03/19 11:06:36;;;;;;;2.37;2.17;;;;;;;5.80;61.49;101285.47;5031950;28;20285;-81
2021/03/19 11:09:09;;;;;;;2.57;2.27;;;;;;;5.83;60.78;101283.81;5037681;28;20272;-82
2021/03/19 11:11:35;;;;;;;2.37;2.07;;;;;;;5.89;61.27;101286.50;5026911;28;20217;-82
2021/03/19 11:14:04;;;;;;;4.20;2.27;;;;;;;6.03;61.22;101278.06;5024112;28;20203;-81
2021/03/19 11:16:33;;;;;;;3.10;2.60;;;;;;;6.10;61.04;101282.47;5036591;28;20264;-82
2021/03/19 11:19:06;;;;;;;2.57;2.30;;;;;;;6.04;61.79;101288.44;5033339;28;20232;-83
2021/03/19 11:21:33;;;;;;;5.73;2.40;;;;;;;5.92;61.99;101283.91;5028145;28;20195;-83
2021/03/19 11:24:12;;;;;;;4.00;2.80;;;;;;;5.80;62.10;101293.25;5028177;28;20233;-82
2021/03/19 11:26:40;;;;;;;2.70;2.50;;;;;;;5.61;62.25;101302.47;5027515;28;20656;-82
2021/03/19 11:29:19;;;;;;;5.33;3.40;;;;;;;5.38;64.04;101297.81;5032573;28;20989;-82
2021/03/19 11:31:57;;;;;;;3.90;3.50;;;;;;;5.18;65.26;101298.34;5028132;28;20202;-80
2021/03/19 11:34:39;;;;;;;3.80;3.40;;;;;;;5.10;65.81;101305.09;5031933;28;20202;-81
2021/03/19 11:37:16;;;;;;;4.10;3.67;;;;;;;5.17;65.54;101301.78;5015133;28;20209;-80
2021/03/19 11:39:55;;;;;;;4.50;3.70;;;;;;;5.46;64.35;101303.09;5028863;28;20291;-82
2021/03/19 11:42:23;;;;;;;3.50;3.20;;;;;;;6.10;63.29;101303.19;5018666;28;20289;-81
2021/03/19 11:44:57;;;;;;;3.17;2.97;;;;;;;6.85;60.06;101301.50;5031769;28;20211;-83
2021/03/19 11:47:26;;;;;;;5.70;3.97;;;;;;;7.30;58.18;101307.97;5019323;28;20573;-80
2021/03/19 11:50:04;;;;;;;3.40;3.20;;;;;;;7.59;57.27;101312.56;5021006;28;20233;-81
2021/03/19 11:52:30;;;;;;;3.40;3.20;;;;;;;7.41;56.59;101313.25;5016674;28;20212;-81
2021/03/19 11:54:56;;;;;;;3.97;3.60;;;;;;;7.10;57.41;101315.59;5017923;28;20207;-81
2021/03/19 11:57:23;;;;;;;3.60;3.30;;;;;;;7.04;57.42;101327.66;5032109;28;20206;-81
2021/03/19 11:59:49;;;;;;;4.03;3.72;;;;;;;6.69;57.14;101321.22;5026226;28;20448;-81
2021/03/19 12:02:28;;;;;;;3.73;3.20;;;;;;;6.42;58.60;101326.97;5035137;28;20221;-81